Time,TemperatureF,DewpointF,PressureIn,WindDirection,WindDirectionDegrees,WindSpeedMPH,WindSpeedGustMPH,Humidity,HourlyPrecipIn,Conditions,Clouds,dailyrainin,SoftwareType,DateUTC
2013-01-20 00:02:00,48.0,5.0,-100.00,NW,310,1.0,2.0,17,-99.99,,,-99.99,,2013-01-20 08:02:00,
2013-01-20 00:12:00,47.0,6.0,-100.00,SSW,195,1.0,2.0,18,-99.99,,,-99.99,,2013-01-20 08:12:00,
2013-01-20 00:21:00,47.0,6.0,-100.00,SW,235,1.0,2.0,18,-99.99,,,-99.99,,2013-01-20 08:21:00,
2013-01-20 00:32:00,47.0,4.0,-100.00,North,2,1.0,2.0,17,-99.99,,,-99.99,,2013-01-20 08:32:00,
2013-01-20 00:42:00,48.0,5.0,-100.00,WSW,253,1.0,2.0,17,-99.99,,,-99.99,,2013-01-20 08:42:00,
2013-01-20 00:52:00,47.0,4.0,-100.00,NNW,328,1.0,2.0,17,-99.99,,,-99.99,,2013-01-20 08:52:00,
2013-01-20 01:02:00,48.0,5.0,-100.00,NW,325,1.0,2.0,17,-99.99,,,-99.99,,2013-01-20 09:02:00,
2013-01-20 01:12:00,48.0,5.0,-100.00,NW,304,1.0,2.0,17,-99.99,,,-99.99,,2013-01-20 09:12:00,
2013-01-20 01:22:00,48.0,4.0,-100.00,NW,321,2.0,3.0,16,-99.99,,,-99.99,,2013-01-20 09:22:00,
2013-01-20 01:33:00,48.0,5.0,-100.00,WNW,291,2.0,2.0,17,-99.99,,,-99.99,,2013-01-20 09:33:00,
2013-01-20 01:42:00,47.0,4.0,-100.00,West,277,1.0,2.0,17,-99.99,,,-99.99,,2013-01-20 09:42:00,
2013-01-20 01:52:00,47.0,4.0,-100.00,NW,312,2.0,3.0,17,-99.99,,,-99.99,,2013-01-20 09:52:00,
2013-01-20 02:02:00,47.0,4.0,-100.00,NW,312,2.0,3.0,17,-99.99,,,-99.99,,2013-01-20 10:02:00,
2013-01-20 02:11:00,47.0,4.0,-100.00,NW,319,2.0,3.0,17,-99.99,,,-99.99,,2013-01-20 10:11:00,
2013-01-20 02:22:00,47.0,4.0,-100.00,WNW,298,1.0,3.0,17,-99.99,,,-99.99,,2013-01-20 10:22:00,
2013-01-20 02:32:00,47.0,4.0,-100.00,NW,308,1.0,2.0,17,-99.99,,,-99.99,,2013-01-20 10:32:00,
2013-01-20 02:42:00,48.0,4.0,-100.00,NNW,330,1.0,3.0,16,-99.99,,,-99.99,,2013-01-20 10:42:00,
2013-01-20 02:52:00,48.0,4.0,-100.00,NW,324,2.0,3.0,16,-99.99,,,-99.99,,2013-01-20 10:52:00,
2013-01-20 03:02:00,47.0,4.0,-100.00,West,279,0.0,2.0,17,-99.99,,,-99.99,,2013-01-20 11:02:00,
2013-01-20 03:12:00,47.0,4.0,-100.00,NW,317,0.0,1.0,17,-99.99,,,-99.99,,2013-01-20 11:12:00,
2013-01-20 03:22:00,48.0,5.0,-100.00,NNW,330,2.0,3.0,17,-99.99,,,-99.99,,2013-01-20 11:22:00,
2013-01-20 03:32:00,47.0,6.0,-100.00,NW,320,3.0,3.0,18,-99.99,,,-99.99,,2013-01-20 11:32:00,
2013-01-20 03:42:00,47.0,6.0,-100.00,NW,320,3.0,3.0,18,-99.99,,,-99.99,,2013-01-20 11:42:00,
2013-01-20 03:53:00,47.0,6.0,-100.00,NW,321,2.0,4.0,18,-99.99,,,-99.99,,2013-01-20 11:53:00,
2013-01-20 04:02:00,47.0,6.0,-100.00,NW,326,3.0,4.0,18,-99.99,,,-99.99,,2013-01-20 12:02:00,
2013-01-20 04:12:00,46.0,5.0,-100.00,NW,324,3.0,4.0,18,-99.99,,,-99.99,,2013-01-20 12:12:00,
2013-01-20 04:22:00,46.0,5.0,-100.00,NNW,329,4.0,5.0,18,-99.99,,,-99.99,,2013-01-20 12:22:00,
2013-01-20 04:33:00,46.0,5.0,-100.00,NW,324,4.0,5.0,18,-99.99,,,-99.99,,2013-01-20 12:33:00,
2013-01-20 04:42:00,46.0,6.0,-100.00,NW,324,4.0,6.0,19,-99.99,,,-99.99,,2013-01-20 12:42:00,
2013-01-20 04:52:00,45.0,6.0,-100.00,NW,321,4.0,5.0,20,-99.99,,,-99.99,,2013-01-20 12:52:00,
2013-01-20 05:02:00,46.0,7.0,-100.00,NW,317,2.0,3.0,20,-99.99,,,-99.99,,2013-01-20 13:02:00,
2013-01-20 05:12:00,46.0,6.0,-100.00,NW,323,2.0,3.0,19,-99.99,,,-99.99,,2013-01-20 13:12:00,
2013-01-20 05:22:00,46.0,6.0,-100.00,NW,318,0.0,2.0,19,-99.99,,,-99.99,,2013-01-20 13:22:00,
2013-01-20 05:32:00,45.0,6.0,-100.00,NNW,331,3.0,5.0,20,-99.99,,,-99.99,,2013-01-20 13:32:00,
2013-01-20 05:42:00,45.0,6.0,-100.00,NNW,331,3.0,5.0,20,-99.99,,,-99.99,,2013-01-20 13:42:00,
2013-01-20 05:52:00,45.0,6.0,-100.00,NNW,329,3.0,5.0,20,-99.99,,,-99.99,,2013-01-20 13:52:00,
2013-01-20 06:02:00,45.0,7.0,-100.00,NW,322,3.0,4.0,21,-99.99,,,-99.99,,2013-01-20 14:02:00,
2013-01-20 06:12:00,45.0,7.0,-100.00,NW,321,3.0,4.0,21,-99.99,,,-99.99,,2013-01-20 14:12:00,
2013-01-20 06:22:00,45.0,7.0,-100.00,NW,321,4.0,6.0,21,-99.99,,,-99.99,,2013-01-20 14:22:00,
2013-01-20 06:32:00,46.0,7.0,-100.00,NNW,328,5.0,6.0,20,-99.99,,,-99.99,,2013-01-20 14:32:00,
2013-01-20 06:42:00,46.0,7.0,-100.00,NNW,329,4.0,7.0,20,-99.99,,,-99.99,,2013-01-20 14:42:00,
2013-01-20 06:52:00,46.0,7.0,-100.00,NW,305,4.0,5.0,20,-99.99,,,-99.99,,2013-01-20 14:52:00,
2013-01-20 07:02:00,45.0,7.0,-100.00,NNW,327,4.0,5.0,21,-99.99,,,-99.99,,2013-01-20 15:02:00,
2013-01-20 07:12:00,45.0,6.0,-100.00,NW,324,5.0,6.0,20,-99.99,,,-99.99,,2013-01-20 15:12:00,
2013-01-20 07:22:00,46.0,7.0,-100.00,NNW,336,3.0,5.0,20,-99.99,,,-99.99,,2013-01-20 15:22:00,
2013-01-20 07:32:00,46.0,6.0,-100.00,NW,326,3.0,5.0,19,-99.99,,,-99.99,,2013-01-20 15:32:00,
2013-01-20 07:42:00,46.0,6.0,-100.00,NNW,329,3.0,4.0,19,-99.99,,,-99.99,,2013-01-20 15:42:00,
2013-01-20 07:52:00,46.0,6.0,-100.00,NW,318,2.0,4.0,19,-99.99,,,-99.99,,2013-01-20 15:52:00,
2013-01-20 08:02:00,47.0,7.0,-100.00,North,353,3.0,5.0,19,-99.99,,,-99.99,,2013-01-20 16:02:00,
2013-01-20 08:12:00,48.0,7.0,-100.00,NW,317,2.0,4.0,18,-99.99,,,-99.99,,2013-01-20 16:12:00,
2013-01-20 08:22:00,49.0,7.0,-100.00,NNW,328,2.0,4.0,18,-99.99,,,-99.99,,2013-01-20 16:22:00,
2013-01-20 08:32:00,50.0,7.0,-100.00,NNW,334,2.0,4.0,17,-99.99,,,-99.99,,2013-01-20 16:32:00,
2013-01-20 08:42:00,52.0,9.0,-100.00,NW,321,1.0,2.0,17,-99.99,,,-99.99,,2013-01-20 16:42:00,
2013-01-20 08:52:00,53.0,8.0,-100.00,NW,325,1.0,3.0,16,-99.99,,,-99.99,,2013-01-20 16:52:00,
2013-01-20 09:02:00,53.0,8.0,-100.00,North,10,4.0,7.0,16,-99.99,,,-99.99,,2013-01-20 17:02:00,
2013-01-20 09:12:00,55.0,8.0,-100.00,North,8,4.0,8.0,15,-99.99,,,-99.99,,2013-01-20 17:12:00,
2013-01-20 09:22:00,56.0,7.0,-100.00,NNE,20,5.0,9.0,14,-99.99,,,-99.99,,2013-01-20 17:22:00,
2013-01-20 09:32:00,57.0,7.0,-100.00,NNE,19,6.0,9.0,13,-99.99,,,-99.99,,2013-01-20 17:32:00,
2013-01-20 09:42:00,57.0,7.0,-100.00,NNE,28,7.0,9.0,13,-99.99,,,-99.99,,2013-01-20 17:42:00,
2013-01-20 09:52:00,58.0,7.0,-100.00,NNE,28,6.0,10.0,13,-99.99,,,-99.99,,2013-01-20 17:52:00,
2013-01-20 10:02:00,59.0,8.0,-100.00,NNE,20,6.0,9.0,13,-99.99,,,-99.99,,2013-01-20 18:02:00,
2013-01-20 10:12:00,60.0,9.0,-100.00,NNE,13,6.0,9.0,13,-99.99,,,-99.99,,2013-01-20 18:12:00,
2013-01-20 10:23:00,62.0,11.0,-100.00,NNE,19,4.0,9.0,13,-99.99,,,-99.99,,2013-01-20 18:23:00,
2013-01-20 10:33:00,63.0,8.0,-100.00,ESE,114,5.0,10.0,11,-99.99,,,-99.99,,2013-01-20 18:33:00,
2013-01-20 10:42:00,63.0,8.0,-100.00,ESE,114,5.0,10.0,11,-99.99,,,-99.99,,2013-01-20 18:42:00,
2013-01-20 10:52:00,64.0,8.0,-100.00,ESE,121,5.0,11.0,11,-99.99,,,-99.99,,2013-01-20 18:52:00,
2013-01-20 11:02:00,64.0,8.0,-100.00,SE,124,6.0,12.0,11,-99.99,,,-99.99,,2013-01-20 19:02:00,
2013-01-20 11:12:00,64.0,8.0,-100.00,East,97,5.0,11.0,11,-99.99,,,-99.99,,2013-01-20 19:12:00,
2013-01-20 11:22:00,64.0,8.0,-100.00,NNE,16,4.0,8.0,11,-99.99,,,-99.99,,2013-01-20 19:22:00,
2013-01-20 11:33:00,62.0,7.0,-100.00,NNE,33,6.0,10.0,11,-99.99,,,-99.99,,2013-01-20 19:33:00,
2013-01-20 11:42:00,62.0,7.0,-100.00,North,3,7.0,10.0,11,-99.99,,,-99.99,,2013-01-20 19:42:00,
2013-01-20 11:52:00,62.0,7.0,-100.00,North,352,6.0,10.0,11,-99.99,,,-99.99,,2013-01-20 19:52:00,
2013-01-20 12:02:00,62.0,9.0,-100.00,NNE,18,5.0,9.0,12,-99.99,,,-99.99,,2013-01-20 20:02:00,
2013-01-20 12:12:00,62.0,7.0,-100.00,NNE,23,6.0,10.0,11,-99.99,,,-99.99,,2013-01-20 20:12:00,
2013-01-20 12:22:00,63.0,10.0,-100.00,North,8,5.0,8.0,12,-99.99,,,-99.99,,2013-01-20 20:22:00,
2013-01-20 12:32:00,62.0,7.0,-100.00,North,1,6.0,9.0,11,-99.99,,,-99.99,,2013-01-20 20:32:00,
2013-01-20 12:42:00,63.0,8.0,-100.00,North,358,6.0,9.0,11,-99.99,,,-99.99,,2013-01-20 20:42:00,
2013-01-20 12:52:00,63.0,8.0,-100.00,North,4,7.0,11.0,11,-99.99,,,-99.99,,2013-01-20 20:52:00,
2013-01-20 13:03:00,64.0,8.0,-100.00,North,357,7.0,12.0,11,-99.99,,,-99.99,,2013-01-20 21:03:00,
2013-01-20 13:12:00,64.0,8.0,-100.00,NNE,12,8.0,13.0,11,-99.99,,,-99.99,,2013-01-20 21:12:00,
2013-01-20 13:22:00,63.0,8.0,-100.00,NNE,15,9.0,14.0,11,-99.99,,,-99.99,,2013-01-20 21:22:00,
2013-01-20 13:33:00,63.0,8.0,-100.00,NNE,24,10.0,13.0,11,-99.99,,,-99.99,,2013-01-20 21:33:00,
2013-01-20 13:42:00,62.0,7.0,-100.00,NNE,29,9.0,13.0,11,-99.99,,,-99.99,,2013-01-20 21:42:00,
2013-01-20 13:52:00,62.0,7.0,-100.00,NNE,26,10.0,15.0,11,-99.99,,,-99.99,,2013-01-20 21:52:00,
2013-01-20 14:02:00,62.0,7.0,-100.00,NNE,20,9.0,13.0,11,-99.99,,,-99.99,,2013-01-20 22:02:00,
2013-01-20 14:12:00,63.0,8.0,-100.00,North,11,9.0,14.0,11,-99.99,,,-99.99,,2013-01-20 22:12:00,
2013-01-20 14:22:00,63.0,8.0,-100.00,North,11,8.0,14.0,11,-99.99,,,-99.99,,2013-01-20 22:22:00,
2013-01-20 14:32:00,63.0,8.0,-100.00,NNE,24,9.0,15.0,11,-99.99,,,-99.99,,2013-01-20 22:32:00,
2013-01-20 14:42:00,63.0,8.0,-100.00,NNE,17,9.0,15.0,11,-99.99,,,-99.99,,2013-01-20 22:42:00,
2013-01-20 14:52:00,62.0,7.0,-100.00,NNE,17,11.0,16.0,11,-99.99,,,-99.99,,2013-01-20 22:52:00,
2013-01-20 15:02:00,62.0,7.0,-100.00,NNE,17,11.0,16.0,11,-99.99,,,-99.99,,2013-01-20 23:02:00,
2013-01-20 15:12:00,62.0,7.0,-100.00,North,10,10.0,16.0,11,-99.99,,,-99.99,,2013-01-20 23:12:00,
2013-01-20 15:22:00,62.0,7.0,-100.00,NNE,21,10.0,15.0,11,-99.99,,,-99.99,,2013-01-20 23:22:00,
2013-01-20 15:33:00,61.0,6.0,-100.00,NNE,23,11.0,16.0,11,-99.99,,,-99.99,,2013-01-20 23:33:00,
2013-01-20 15:42:00,61.0,6.0,-100.00,North,2,7.0,12.0,11,-99.99,,,-99.99,,2013-01-20 23:42:00,
2013-01-20 15:52:00,60.0,5.0,-100.00,North,351,9.0,14.0,11,-99.99,,,-99.99,,2013-01-20 23:52:00,
2013-01-20 16:02:00,60.0,5.0,-100.00,North,354,8.0,12.0,11,-99.99,,,-99.99,,2013-01-21 00:02:00,
2013-01-20 16:12:00,59.0,6.0,-100.00,North,356,7.0,14.0,12,-99.99,,,-99.99,,2013-01-21 00:12:00,
2013-01-20 16:22:00,59.0,5.0,-100.00,North,357,8.0,12.0,11,-99.99,,,-99.99,,2013-01-21 00:22:00,
2013-01-20 16:32:00,59.0,5.0,-100.00,North,355,7.0,12.0,11,-99.99,,,-99.99,,2013-01-21 00:32:00,
2013-01-20 16:42:00,59.0,5.0,-100.00,North,355,6.0,11.0,11,-99.99,,,-99.99,,2013-01-21 00:42:00,
2013-01-20 16:53:00,58.0,4.0,-100.00,North,349,7.0,11.0,11,-99.99,,,-99.99,,2013-01-21 00:53:00,
2013-01-20 17:02:00,58.0,4.0,-100.00,NNW,347,7.0,10.0,11,-99.99,,,-99.99,,2013-01-21 01:02:00,
2013-01-20 17:12:00,58.0,6.0,-100.00,North,359,5.0,8.0,12,-99.99,,,-99.99,,2013-01-21 01:12:00,
2013-01-20 17:22:00,57.0,5.0,-100.00,NNE,12,4.0,8.0,12,-99.99,,,-99.99,,2013-01-21 01:22:00,
2013-01-20 17:32:00,56.0,4.0,-100.00,NNW,335,2.0,4.0,12,-99.99,,,-99.99,,2013-01-21 01:32:00,
2013-01-20 17:42:00,55.0,3.0,-100.00,NW,316,2.0,6.0,12,-99.99,,,-99.99,,2013-01-21 01:42:00,
2013-01-20 17:52:00,54.0,3.0,-100.00,NW,324,2.0,5.0,12,-99.99,,,-99.99,,2013-01-21 01:52:00,
2013-01-20 18:02:00,54.0,3.0,-100.00,NW,324,2.0,5.0,12,-99.99,,,-99.99,,2013-01-21 02:02:00,
2013-01-20 18:12:00,53.0,2.0,-100.00,NW,323,3.0,5.0,12,-99.99,,,-99.99,,2013-01-21 02:12:00,
2013-01-20 18:22:00,53.0,2.0,-100.00,NW,311,3.0,6.0,12,-99.99,,,-99.99,,2013-01-21 02:22:00,
2013-01-20 18:33:00,53.0,2.0,-100.00,NNW,335,4.0,7.0,12,-99.99,,,-99.99,,2013-01-21 02:33:00,
2013-01-20 18:42:00,52.0,3.0,-100.00,NW,324,3.0,6.0,13,-99.99,,,-99.99,,2013-01-21 02:42:00,
2013-01-20 18:52:00,52.0,1.0,-100.00,NW,321,4.0,6.0,12,-99.99,,,-99.99,,2013-01-21 02:52:00,
2013-01-20 19:02:00,52.0,1.0,-100.00,NW,318,4.0,6.0,12,-99.99,,,-99.99,,2013-01-21 03:02:00,
2013-01-20 19:12:00,52.0,3.0,-100.00,NW,315,4.0,7.0,13,-99.99,,,-99.99,,2013-01-21 03:12:00,
2013-01-20 19:23:00,51.0,2.0,-100.00,NNW,339,4.0,7.0,13,-99.99,,,-99.99,,2013-01-21 03:23:00,
2013-01-20 19:32:00,51.0,2.0,-100.00,NNW,341,2.0,4.0,13,-99.99,,,-99.99,,2013-01-21 03:32:00,
2013-01-20 19:42:00,51.0,2.0,-100.00,NNW,341,2.0,4.0,13,-99.99,,,-99.99,,2013-01-21 03:42:00,
2013-01-20 19:52:00,50.0,1.0,-100.00,NNW,334,2.0,4.0,13,-99.99,,,-99.99,,2013-01-21 03:52:00,
2013-01-20 20:02:00,50.0,1.0,-100.00,NNW,334,2.0,4.0,13,-99.99,,,-99.99,,2013-01-21 04:02:00,
2013-01-20 20:12:00,49.0,2.0,-100.00,WSW,257,1.0,3.0,14,-99.99,,,-99.99,,2013-01-21 04:12:00,
2013-01-20 20:22:00,49.0,2.0,-100.00,WSW,249,0.0,2.0,14,-99.99,,,-99.99,,2013-01-21 04:22:00,
2013-01-20 20:32:00,50.0,1.0,-100.00,North,350,4.0,7.0,13,-99.99,,,-99.99,,2013-01-21 04:32:00,
2013-01-20 20:42:00,50.0,1.0,-100.00,North,350,4.0,7.0,13,-99.99,,,-99.99,,2013-01-21 04:42:00,
2013-01-20 20:52:00,49.0,2.0,-100.00,NNW,336,2.0,6.0,14,-99.99,,,-99.99,,2013-01-21 04:52:00,
2013-01-20 21:03:00,49.0,2.0,-100.00,NW,323,2.0,3.0,14,-99.99,,,-99.99,,2013-01-21 05:03:00,
2013-01-20 21:12:00,49.0,2.0,-100.00,NNW,341,3.0,4.0,14,-99.99,,,-99.99,,2013-01-21 05:12:00,
2013-01-20 21:22:00,49.0,2.0,-100.00,North,2,4.0,6.0,14,-99.99,,,-99.99,,2013-01-21 05:22:00,
2013-01-20 21:33:00,50.0,3.0,-100.00,NNW,346,4.0,6.0,14,-99.99,,,-99.99,,2013-01-21 05:33:00,
2013-01-20 21:42:00,50.0,3.0,-100.00,NNW,346,4.0,6.0,14,-99.99,,,-99.99,,2013-01-21 05:42:00,
2013-01-20 21:52:00,49.0,2.0,-100.00,North,352,3.0,6.0,14,-99.99,,,-99.99,,2013-01-21 05:52:00,
2013-01-20 22:02:00,49.0,2.0,-100.00,NNW,333,1.0,3.0,14,-99.99,,,-99.99,,2013-01-21 06:02:00,
2013-01-20 22:12:00,48.0,1.0,-100.00,WNW,294,1.0,3.0,14,-99.99,,,-99.99,,2013-01-21 06:12:00,
2013-01-20 22:22:00,48.0,1.0,-100.00,North,350,1.0,2.0,14,-99.99,,,-99.99,,2013-01-21 06:22:00,
2013-01-20 22:32:00,48.0,1.0,-100.00,SW,234,0.0,2.0,14,-99.99,,,-99.99,,2013-01-21 06:32:00,
2013-01-20 22:43:00,48.0,1.0,-100.00,WSW,253,1.0,2.0,14,-99.99,,,-99.99,,2013-01-21 06:43:00,
2013-01-20 22:52:00,48.0,1.0,-100.00,South,183,1.0,2.0,14,-99.99,,,-99.99,,2013-01-21 06:52:00,
2013-01-20 23:02:00,48.0,1.0,-100.00,South,183,1.0,2.0,14,-99.99,,,-99.99,,2013-01-21 07:02:00,
2013-01-20 23:12:00,50.0,1.0,-100.00,NW,316,1.0,2.0,13,-99.99,,,-99.99,,2013-01-21 07:12:00,
2013-01-20 23:22:00,49.0,0.0,-100.00,SSE,156,0.0,2.0,13,-99.99,,,-99.99,,2013-01-21 07:22:00,
2013-01-20 23:33:00,50.0,-1.0,-100.00,NW,326,1.0,3.0,12,-99.99,,,-99.99,,2013-01-21 07:33:00,
2013-01-20 23:42:00,50.0,-1.0,-100.00,NW,326,1.0,3.0,12,-99.99,,,-99.99,,2013-01-21 07:42:00,
2013-01-20 23:52:00,49.0,-1.0,-100.00,NW,314,1.0,2.0,12,-99.99,,,-99.99,,2013-01-21 07:52:00,